sensor_id;sensor_type;location;lat;lon;timestamp;pressure;altitude;pressure_sealevel;temperature;humidity
35694;BME280;21812;55.536;37.664;2023-05-07T00:01:56;100840.19;;;2.83;54.98
35694;BME280;21812;55.536;37.664;2023-05-07T00:04:22;100845.97;;;2.88;54.64
35694;BME280;21812;55.536;37.664;2023-05-07T00:06:48;100845.75;;;2.91;54.48
35694;BME280;21812;55.536;37.664;2023-05-07T00:09:14;100849.13;;;2.93;54.35
35694;BME280;21812;55.536;37.664;2023-05-07T00:11:39;100837.09;;;2.89;54.50
35694;BME280;21812;55.536;37.664;2023-05-07T00:14:05;100847.19;;;2.96;54.29
35694;BME280;21812;55.536;37.664;2023-05-07T00:16:31;100851.75;;;2.93;54.49
35694;BME280;21812;55.536;37.664;2023-05-07T00:18:57;100849.13;;;2.93;54.59
35694;BME280;21812;55.536;37.664;2023-05-07T00:21:23;100851.97;;;2.90;54.63
35694;BME280;21812;55.536;37.664;2023-05-07T00:23:53;100855.16;;;2.83;55.11
35694;BME280;21812;55.536;37.664;2023-05-07T00:26:19;100846.75;;;2.78;55.23
35694;BME280;21812;55.536;37.664;2023-05-07T00:28:49;100846.75;;;2.78;55.07
35694;BME280;21812;55.536;37.664;2023-05-07T00:31:14;100847.72;;;2.77;55.11
35694;BME280;21812;55.536;37.664;2023-05-07T00:33:40;100854.94;;;2.62;55.42
35694;BME280;21812;55.536;37.664;2023-05-07T00:36:06;100855.94;;;2.48;56.37
35694;BME280;21812;55.536;37.664;2023-05-07T00:38:32;100855.06;;;2.47;56.62
35694;BME280;21812;55.536;37.664;2023-05-07T00:40:58;100863.59;;;2.51;56.43
35694;BME280;21812;55.536;37.664;2023-05-07T00:43:23;100858.84;;;2.56;56.09
35694;BME280;21812;55.536;37.664;2023-05-07T00:45:49;100861.50;;;2.56;56.19
35694;BME280;21812;55.536;37.664;2023-05-07T00:48:15;100861.69;;;2.53;56.13
35694;BME280;21812;55.536;37.664;2023-05-07T00:50:41;100864.88;;;2.58;56.05
35694;BME280;21812;55.536;37.664;2023-05-07T00:53:07;100855.28;;;2.57;55.75
35694;BME280;21812;55.536;37.664;2023-05-07T00:55:35;100851.41;;;2.50;56.05
35694;BME280;21812;55.536;37.664;2023-05-07T00:58:01;100861.50;;;2.56;55.79
35694;BME280;21812;55.536;37.664;2023-05-07T01:00:27;100866.97;;;2.53;56.03
35694;BME280;21812;55.536;37.664;2023-05-07T01:02:53;100861.22;;;2.48;56.12
35694;BME280;21812;55.536;37.664;2023-05-07T01:05:20;100854.69;;;2.41;56.18
35694;BME280;21812;55.536;37.664;2023-05-07T01:07:49;100824.34;;;2.22;56.17
35694;BME280;21812;55.536;37.664;2023-05-07T01:10:17;100865.84;;;2.44;56.29
35694;BME280;21812;55.536;37.664;2023-05-07T01:12:44;100867.66;;;2.44;56.73
35694;BME280;21812;55.536;37.664;2023-05-07T01:15:11;100870.78;;;2.49;56.79
35694;BME280;21812;55.536;37.664;2023-05-07T01:17:41;100874.06;;;2.40;56.86
35694;BME280;21812;55.536;37.664;2023-05-07T01:20:13;100869.47;;;2.30;57.01
35694;BME280;21812;55.536;37.664;2023-05-07T01:22:40;100877.16;;;2.33;57.16
35694;BME280;21812;55.536;37.664;2023-05-07T01:25:07;100881.50;;;2.34;56.91
35694;BME280;21812;55.536;37.664;2023-05-07T01:27:35;100883.59;;;2.29;57.14
35694;BME280;21812;55.536;37.664;2023-05-07T01:30:05;100885.72;;;2.24;57.27
35694;BME280;21812;55.536;37.664;2023-05-07T01:33:04;100888.66;;;2.32;57.40
35694;BME280;21812;55.536;37.664;2023-05-07T01:35:36;100881.59;;;2.20;57.31
35694;BME280;21812;55.536;37.664;2023-05-07T01:38:03;100884.03;;;2.23;57.39
35694;BME280;21812;55.536;37.664;2023-05-07T01:40:31;100884.88;;;2.24;57.31
35694;BME280;21812;55.536;37.664;2023-05-07T01:42:57;100895.31;;;2.25;57.35
35694;BME280;21812;55.536;37.664;2023-05-07T01:45:24;100901.97;;;2.18;57.52
35694;BME280;21812;55.536;37.664;2023-05-07T01:47:52;100860.66;;;1.93;57.51
35694;BME280;21812;55.536;37.664;2023-05-07T01:50:19;100905.31;;;2.20;57.44
35694;BME280;21812;55.536;37.664;2023-05-07T01:52:45;100908.25;;;2.28;57.23
35694;BME280;21812;55.536;37.664;2023-05-07T01:55:11;100899.41;;;2.29;56.88
35694;BME280;21812;55.536;37.664;2023-05-07T01:57:38;100906.16;;;2.33;57.06
35694;BME280;21812;55.536;37.664;2023-05-07T02:00:05;100917.97;;;2.28;57.24
35694;BME280;21812;55.536;37.664;2023-05-07T02:02:41;100912.59;;;2.29;57.31
35694;BME280;21812;55.536;37.664;2023-05-07T02:05:16;100919.13;;;2.24;57.18
35694;BME280;21812;55.536;37.664;2023-05-07T02:07:43;100917.78;;;2.18;57.45
35694;BME280;21812;55.536;37.664;2023-05-07T02:10:09;100917.97;;;2.15;57.46
35694;BME280;21812;55.536;37.664;2023-05-07T02:12:35;100925.78;;;2.17;57.34
35694;BME280;21812;55.536;37.664;2023-05-07T02:15:01;100924.41;;;2.24;57.60
35694;BME280;21812;55.536;37.664;2023-05-07T02:17:32;100923.03;;;2.18;57.21
35694;BME280;21812;55.536;37.664;2023-05-07T02:19:59;100925.78;;;2.17;57.29
35694;BME280;21812;55.536;37.664;2023-05-07T02:22:45;100920.41;;;2.18;57.47
35694;BME280;21812;55.536;37.664;2023-05-07T02:25:10;100924.84;;;2.18;57.39
35694;BME280;21812;55.536;37.664;2023-05-07T02:27:36;100931.25;;;2.26;57.28
35694;BME280;21812;55.536;37.664;2023-05-07T02:30:02;100928.75;;;2.25;57.38
35694;BME280;21812;55.536;37.664;2023-05-07T02:32:30;100935.38;;;2.30;57.19
35694;BME280;21812;55.536;37.664;2023-05-07T02:34:56;100936.13;;;2.32;57.27
35694;BME280;21812;55.536;37.664;2023-05-07T02:37:22;100933.97;;;2.38;57.37
35694;BME280;21812;55.536;37.664;2023-05-07T02:39:47;100939.78;;;2.43;57.11
35694;BME280;21812;55.536;37.664;2023-05-07T02:42:13;100939.44;;;2.47;57.26
35694;BME280;21812;55.536;37.664;2023-05-07T02:44:39;100944.53;;;2.38;57.49
35694;BME280;21812;55.536;37.664;2023-05-07T02:47:05;100939.25;;;2.38;57.36
35694;BME280;21812;55.536;37.664;2023-05-07T02:49:34;100942.63;;;2.40;57.11
35694;BME280;21812;55.536;37.664;2023-05-07T02:52:00;100945.69;;;2.46;56.94
35694;BME280;21812;55.536;37.664;2023-05-07T02:54:26;100946.63;;;2.58;56.88
35694;BME280;21812;55.536;37.664;2023-05-07T02:56:52;100953.44;;;2.61;56.68
35694;BME280;21812;55.536;37.664;2023-05-07T02:59:17;100946.63;;;2.58;56.79
35694;BME280;21812;55.536;37.664;2023-05-07T03:01:43;100943.97;;;2.58;56.83
35694;BME280;21812;55.536;37.664;2023-05-07T03:04:11;100948.94;;;2.63;56.57
35694;BME280;21812;55.536;37.664;2023-05-07T03:06:37;100943.31;;;2.67;56.55
35694;BME280;21812;55.536;37.664;2023-05-07T03:09:03;100960.41;;;2.74;56.63
35694;BME280;21812;55.536;37.664;2023-05-07T03:11:29;100955.63;;;2.80;56.42
35694;BME280;21812;55.536;37.664;2023-05-07T03:13:55;100952.13;;;2.92;56.00
35694;BME280;21812;55.536;37.664;2023-05-07T03:16:21;100959.22;;;2.91;56.07
35694;BME280;21812;55.536;37.664;2023-05-07T03:18:47;100959.81;;;2.95;55.99
35694;BME280;21812;55.536;37.664;2023-05-07T03:21:13;100965.06;;;2.95;56.05
35694;BME280;21812;55.536;37.664;2023-05-07T03:23:38;100969.41;;;2.96;55.85
35694;BME280;21812;55.536;37.664;2023-05-07T03:26:04;100972.06;;;2.96;55.70
35694;BME280;21812;55.536;37.664;2023-05-07T03:28:30;100974.06;;;2.92;55.82
35694;BME280;21812;55.536;37.664;2023-05-07T03:31:00;100986.81;;;2.99;55.75
35694;BME280;21812;55.536;37.664;2023-05-07T03:33:26;100971.59;;;3.02;55.83
35694;BME280;21812;55.536;37.664;2023-05-07T03:35:53;100974.75;;;3.07;55.79
35694;BME280;21812;55.536;37.664;2023-05-07T03:38:22;100979.38;;;3.17;55.52
35694;BME280;21812;55.536;37.664;2023-05-07T03:40:49;100972.66;;;3.12;55.37
35694;BME280;21812;55.536;37.664;2023-05-07T03:43:15;100980.78;;;3.09;55.40
35694;BME280;21812;55.536;37.664;2023-05-07T03:45:46;100984.75;;;3.15;55.30
35694;BME280;21812;55.536;37.664;2023-05-07T03:48:17;100986.75;;;3.24;55.36
35694;BME280;21812;55.536;37.664;2023-05-07T03:50:43;100986.13;;;3.21;55.05
35694;BME280;21812;55.536;37.664;2023-05-07T03:53:09;100991.69;;;3.29;55.24
35694;BME280;21812;55.536;37.664;2023-05-07T03:55:38;100988.38;;;3.38;54.62
35694;BME280;21812;55.536;37.664;2023-05-07T03:58:04;100994.16;;;3.43;54.64
35694;BME280;21812;55.536;37.664;2023-05-07T04:00:30;100997.06;;;3.51;54.03
35694;BME280;21812;55.536;37.664;2023-05-07T04:02:59;101003.31;;;3.50;54.11
35694;BME280;21812;55.536;37.664;2023-05-07T04:05:28;101001.63;;;3.49;53.77
35694;BME280;21812;55.536;37.664;2023-05-07T04:07:59;101007.56;;;3.40;54.13
35694;BME280;21812;55.536;37.664;2023-05-07T04:10:31;101005.91;;;3.39;54.35
35694;BME280;21812;55.536;37.664;2023-05-07T04:12:59;101002.28;;;3.40;54.47
35694;BME280;21812;55.536;37.664;2023-05-07T04:15:26;101009.03;;;3.44;54.47
35694;BME280;21812;55.536;37.664;2023-05-07T04:17:52;101012.19;;;3.49;54.13
35694;BME280;21812;55.536;37.664;2023-05-07T04:20:20;101014.47;;;3.54;54.06
35694;BME280;21812;55.536;37.664;2023-05-07T04:22:52;101020.91;;;3.63;53.74
35694;BME280;21812;55.536;37.664;2023-05-07T04:25:18;101015.41;;;3.66;53.95
35694;BME280;21812;55.536;37.664;2023-05-07T04:27:44;101011.31;;;3.62;53.63
35694;BME280;21812;55.536;37.664;2023-05-07T04:30:12;101014.22;;;3.70;53.29
35694;BME280;21812;55.536;37.664;2023-05-07T04:32:38;101015.56;;;3.76;53.19
35694;BME280;21812;55.536;37.664;2023-05-07T04:35:05;101018.34;;;3.85;52.88
35694;BME280;21812;55.536;37.664;2023-05-07T04:37:32;101019.19;;;3.86;52.80
35694;BME280;21812;55.536;37.664;2023-05-07T04:39:59;101015.97;;;3.94;52.62
35694;BME280;21812;55.536;37.664;2023-05-07T04:42:26;101019.13;;;3.99;52.23
35694;BME280;21812;55.536;37.664;2023-05-07T04:44:53;101019.84;;;4.01;52.57
35694;BME280;21812;55.536;37.664;2023-05-07T04:47:19;101024.19;;;4.02;51.97
35694;BME280;21812;55.536;37.664;2023-05-07T04:49:46;101020.91;;;3.98;51.38
35694;BME280;21812;55.536;37.664;2023-05-07T04:52:12;101026.34;;;4.08;51.60
35694;BME280;21812;55.536;37.664;2023-05-07T04:54:37;101022.50;;;4.12;51.07
35694;BME280;21812;55.536;37.664;2023-05-07T04:57:04;101015.81;;;4.19;51.34
35694;BME280;21812;55.536;37.664;2023-05-07T04:59:30;101025.41;;;4.20;50.79
35694;BME280;21812;55.536;37.664;2023-05-07T05:01:56;101026.75;;;4.26;50.57
35694;BME280;21812;55.536;37.664;2023-05-07T05:04:23;101024.59;;;4.31;50.75
35694;BME280;21812;55.536;37.664;2023-05-07T05:06:49;101022.78;;;4.31;48.80
35694;BME280;21812;55.536;37.664;2023-05-07T05:09:15;101028.78;;;4.34;49.09
35694;BME280;21812;55.536;37.664;2023-05-07T05:11:41;101019.19;;;4.33;49.11
35694;BME280;21812;55.536;37.664;2023-05-07T05:14:07;101028.56;;;4.37;48.72
35694;BME280;21812;55.536;37.664;2023-05-07T05:16:33;101025.81;;;4.38;48.14
35694;BME280;21812;55.536;37.664;2023-05-07T05:18:59;101032.06;;;4.48;47.83
35694;BME280;21812;55.536;37.664;2023-05-07T05:21:25;101036.75;;;4.56;47.55
35694;BME280;21812;55.536;37.664;2023-05-07T05:23:56;101003.94;;;4.47;47.99
35694;BME280;21812;55.536;37.664;2023-05-07T05:26:24;101023.06;;;4.74;47.54
35694;BME280;21812;55.536;37.664;2023-05-07T05:28:50;101029.34;;;4.84;46.48
35694;BME280;21812;55.536;37.664;2023-05-07T05:31:19;101028.47;;;4.95;46.77
35694;BME280;21812;55.536;37.664;2023-05-07T05:33:48;101040.63;;;5.08;46.05
35694;BME280;21812;55.536;37.664;2023-05-07T05:36:13;101013.44;;;4.95;45.09
35694;BME280;21812;55.536;37.664;2023-05-07T05:38:41;101045.44;;;5.15;44.95
35694;BME280;21812;55.536;37.664;2023-05-07T05:41:08;101048.78;;;5.17;44.53
35694;BME280;21812;55.536;37.664;2023-05-07T05:43:34;101048.19;;;5.13;44.56
35694;BME280;21812;55.536;37.664;2023-05-07T05:46:00;101040.13;;;5.15;44.86
35694;BME280;21812;55.536;37.664;2023-05-07T05:48:26;101042.75;;;5.26;44.25
35694;BME280;21812;55.536;37.664;2023-05-07T05:50:52;101045.16;;;5.29;43.63
35694;BME280;21812;55.536;37.664;2023-05-07T05:53:18;101053.84;;;5.20;43.29
35694;BME280;21812;55.536;37.664;2023-05-07T05:55:44;101045.44;;;5.15;43.28
35694;BME280;21812;55.536;37.664;2023-05-07T05:58:11;101039.41;;;5.13;43.08
35694;BME280;21812;55.536;37.664;2023-05-07T06:00:41;101055.63;;;5.31;43.60
35694;BME280;21812;55.536;37.664;2023-05-07T06:03:07;101060.09;;;5.30;42.18
35694;BME280;21812;55.536;37.664;2023-05-07T06:05:34;101057.66;;;5.27;42.53
35694;BME280;21812;55.536;37.664;2023-05-07T06:08:00;101053.97;;;5.29;42.92
35694;BME280;21812;55.536;37.664;2023-05-07T06:10:30;101056.94;;;5.36;43.30
35694;BME280;21812;55.536;37.664;2023-05-07T06:12:56;101065.16;;;5.33;42.20
35694;BME280;21812;55.536;37.664;2023-05-07T06:15:22;101058.16;;;5.32;41.80
35694;BME280;21812;55.536;37.664;2023-05-07T06:17:48;101061.50;;;5.45;42.05
35694;BME280;21812;55.536;37.664;2023-05-07T06:20:14;101055.28;;;5.35;41.88
35694;BME280;21812;55.536;37.664;2023-05-07T06:22:40;101064.38;;;5.42;42.14
35694;BME280;21812;55.536;37.664;2023-05-07T06:25:08;101063.66;;;5.52;42.00
35694;BME280;21812;55.536;37.664;2023-05-07T06:27:33;101054.31;;;5.68;41.60
35694;BME280;21812;55.536;37.664;2023-05-07T06:29:59;101049.63;;;5.72;41.49
35694;BME280;21812;55.536;37.664;2023-05-07T06:32:26;101054.88;;;5.83;41.38
35694;BME280;21812;55.536;37.664;2023-05-07T06:34:51;101047.63;;;5.97;41.52
35694;BME280;21812;55.536;37.664;2023-05-07T06:37:18;101052.69;;;6.21;41.36
35694;BME280;21812;55.536;37.664;2023-05-07T06:40:05;101050.47;;;6.26;40.79
35694;BME280;21812;55.536;37.664;2023-05-07T06:42:35;101019.94;;;6.32;40.78
35694;BME280;21812;55.536;37.664;2023-05-07T06:45:19;101033.97;;;6.64;39.50
35694;BME280;21812;55.536;37.664;2023-05-07T06:47:45;101046.41;;;6.74;38.43
35694;BME280;21812;55.536;37.664;2023-05-07T06:50:11;101052.00;;;6.71;39.38
35694;BME280;21812;55.536;37.664;2023-05-07T06:52:38;101054.97;;;6.56;38.71
35694;BME280;21812;55.536;37.664;2023-05-07T06:55:05;101055.47;;;6.40;38.70
35694;BME280;21812;55.536;37.664;2023-05-07T06:57:31;101053.78;;;6.18;39.03
35694;BME280;21812;55.536;37.664;2023-05-07T06:59:57;101055.66;;;6.28;39.05
35694;BME280;21812;55.536;37.664;2023-05-07T07:02:23;101057.66;;;6.35;38.77
35694;BME280;21812;55.536;37.664;2023-05-07T07:04:49;101055.91;;;6.45;38.96
35694;BME280;21812;55.536;37.664;2023-05-07T07:07:15;101042.25;;;6.50;38.64
35694;BME280;21812;55.536;37.664;2023-05-07T07:09:43;101048.09;;;6.44;38.94
35694;BME280;21812;55.536;37.664;2023-05-07T07:12:10;101051.00;;;6.41;39.22
35694;BME280;21812;55.536;37.664;2023-05-07T07:14:38;101055.59;;;6.39;38.70
35694;BME280;21812;55.536;37.664;2023-05-07T07:17:03;101056.00;;;6.34;38.23
35694;BME280;21812;55.536;37.664;2023-05-07T07:19:31;101064.06;;;6.33;38.17
35694;BME280;21812;55.536;37.664;2023-05-07T07:21:57;101055.41;;;6.31;37.70
35694;BME280;21812;55.536;37.664;2023-05-07T07:24:23;101057.66;;;6.35;38.00
35694;BME280;21812;55.536;37.664;2023-05-07T07:26:53;101048.78;;;6.46;38.31
35694;BME280;21812;55.536;37.664;2023-05-07T07:29:21;101054.66;;;6.71;38.68
35694;BME280;21812;55.536;37.664;2023-05-07T07:31:48;101037.69;;;6.93;36.80
35694;BME280;21812;55.536;37.664;2023-05-07T07:34:16;101051.81;;;6.93;36.57
35694;BME280;21812;55.536;37.664;2023-05-07T07:36:42;101052.88;;;6.81;35.38
35694;BME280;21812;55.536;37.664;2023-05-07T07:39:08;101052.84;;;6.71;35.51
35694;BME280;21812;55.536;37.664;2023-05-07T07:41:35;101042.34;;;6.70;36.39
35694;BME280;21812;55.536;37.664;2023-05-07T07:44:03;101048.41;;;6.81;36.63
35694;BME280;21812;55.536;37.664;2023-05-07T07:46:29;101043.19;;;7.01;36.45
35694;BME280;21812;55.536;37.664;2023-05-07T07:48:55;101052.75;;;7.23;36.26
35694;BME280;21812;55.536;37.664;2023-05-07T07:51:23;101042.84;;;7.35;35.28
35694;BME280;21812;55.536;37.664;2023-05-07T07:53:50;101038.53;;;7.43;34.67
35694;BME280;21812;55.536;37.664;2023-05-07T07:56:17;101040.75;;;7.48;34.09
35694;BME280;21812;55.536;37.664;2023-05-07T07:58:43;101034.34;;;7.51;34.17
35694;BME280;21812;55.536;37.664;2023-05-07T08:01:09;101029.75;;;7.62;34.26
35694;BME280;21812;55.536;37.664;2023-05-07T08:03:35;101037.44;;;7.75;34.16
35694;BME280;21812;55.536;37.664;2023-05-07T08:06:01;101032.97;;;7.76;34.89
35694;BME280;21812;55.536;37.664;2023-05-07T08:08:28;101038.72;;;7.81;34.25
35694;BME280;21812;55.536;37.664;2023-05-07T08:10:54;101031.28;;;7.85;33.77
35694;BME280;21812;55.536;37.664;2023-05-07T08:13:26;101030.88;;;7.79;33.64
35694;BME280;21812;55.536;37.664;2023-05-07T08:15:53;101036.59;;;7.65;34.07
35694;BME280;21812;55.536;37.664;2023-05-07T08:18:19;101033.22;;;7.53;34.47
35694;BME280;21812;55.536;37.664;2023-05-07T08:20:45;101040.81;;;7.58;34.27
35694;BME280;21812;55.536;37.664;2023-05-07T08:23:15;101031.84;;;7.78;34.46
35694;BME280;21812;55.536;37.664;2023-05-07T08:25:42;101026.53;;;7.88;34.45
35694;BME280;21812;55.536;37.664;2023-05-07T08:28:11;101031.28;;;8.04;34.16
35694;BME280;21812;55.536;37.664;2023-05-07T08:30:38;101025.94;;;8.14;33.84
35694;BME280;21812;55.536;37.664;2023-05-07T08:33:04;101020.19;;;8.28;33.28
35694;BME280;21812;55.536;37.664;2023-05-07T08:35:29;101016.44;;;8.11;32.88
35694;BME280;21812;55.536;37.664;2023-05-07T08:37:56;101016.56;;;8.19;32.38
35694;BME280;21812;55.536;37.664;2023-05-07T08:40:25;101013.41;;;8.34;33.01
35694;BME280;21812;55.536;37.664;2023-05-07T08:42:52;101017.78;;;8.35;32.71
35694;BME280;21812;55.536;37.664;2023-05-07T08:45:19;101016.97;;;8.25;32.79
35694;BME280;21812;55.536;37.664;2023-05-07T08:47:55;100987.28;;;8.19;32.60
35694;BME280;21812;55.536;37.664;2023-05-07T08:50:26;101018.28;;;8.58;31.25
35694;BME280;21812;55.536;37.664;2023-05-07T08:52:52;101019.06;;;8.78;31.76
35694;BME280;21812;55.536;37.664;2023-05-07T08:55:20;101011.78;;;8.80;30.78
35694;BME280;21812;55.536;37.664;2023-05-07T08:57:46;101014.03;;;8.75;30.40
35694;BME280;21812;55.536;37.664;2023-05-07T09:00:15;101017.78;;;8.82;31.12
35694;BME280;21812;55.536;37.664;2023-05-07T09:02:42;101021.66;;;8.60;31.14
35694;BME280;21812;55.536;37.664;2023-05-07T09:05:09;101020.84;;;8.40;31.47
35694;BME280;21812;55.536;37.664;2023-05-07T09:07:36;101025.06;;;8.33;31.40
35694;BME280;21812;55.536;37.664;2023-05-07T09:10:05;100988.84;;;8.02;31.81
35694;BME280;21812;55.536;37.664;2023-05-07T09:12:32;101022.44;;;8.23;32.07
35694;BME280;21812;55.536;37.664;2023-05-07T09:15:01;101023.69;;;8.19;31.40
35694;BME280;21812;55.536;37.664;2023-05-07T09:17:33;101019.47;;;8.26;30.86
35694;BME280;21812;55.536;37.664;2023-05-07T09:20:04;101014.84;;;8.48;31.67
35694;BME280;21812;55.536;37.664;2023-05-07T09:22:32;101021.06;;;8.76;31.33
35694;BME280;21812;55.536;37.664;2023-05-07T09:25:02;101017.78;;;8.82;32.55
35694;BME280;21812;55.536;37.664;2023-05-07T09:27:30;100988.22;;;8.75;32.60
35694;BME280;21812;55.536;37.664;2023-05-07T09:29:57;101010.66;;;9.10;31.99
35694;BME280;21812;55.536;37.664;2023-05-07T09:32:24;100987.28;;;8.94;31.25
35694;BME280;21812;55.536;37.664;2023-05-07T09:34:51;101017.00;;;8.99;31.01
35694;BME280;21812;55.536;37.664;2023-05-07T09:37:21;101020.88;;;8.87;30.64
35694;BME280;21812;55.536;37.664;2023-05-07T09:39:49;101014.31;;;8.72;30.38
35694;BME280;21812;55.536;37.664;2023-05-07T09:42:23;101022.94;;;8.93;30.32
35694;BME280;21812;55.536;37.664;2023-05-07T09:44:51;101015.41;;;9.34;30.64
35694;BME280;21812;55.536;37.664;2023-05-07T09:47:23;100973.59;;;9.53;29.17
35694;BME280;21812;55.536;37.664;2023-05-07T09:49:56;100981.97;;;9.94;29.19
35694;BME280;21812;55.536;37.664;2023-05-07T09:52:24;101002.28;;;9.95;27.71
35694;BME280;21812;55.536;37.664;2023-05-07T09:54:54;100997.13;;;9.75;29.25
35694;BME280;21812;55.536;37.664;2023-05-07T09:57:25;100992.88;;;9.65;28.31
35694;BME280;21812;55.536;37.664;2023-05-07T09:59:57;100999.09;;;9.55;28.77
35694;BME280;21812;55.536;37.664;2023-05-07T10:02:27;100984.78;;;9.74;28.09
35694;BME280;21812;55.536;37.664;2023-05-07T10:04:54;101007.63;;;9.95;28.00
35694;BME280;21812;55.536;37.664;2023-05-07T10:07:28;101007.09;;;9.91;28.36
35694;BME280;21812;55.536;37.664;2023-05-07T10:09:59;101002.38;;;10.29;27.38
35694;BME280;21812;55.536;37.664;2023-05-07T10:12:35;101004.81;;;9.96;28.52
35694;BME280;21812;55.536;37.664;2023-05-07T10:15:11;101013.09;;;11.57;46.15
35694;BME280;21812;55.536;37.664;2023-05-07T10:17:39;101011.38;;;13.42;39.08
35694;BME280;21812;55.536;37.664;2023-05-07T10:20:07;100981.66;;;14.13;28.14
35694;BME280;21812;55.536;37.664;2023-05-07T10:22:39;100962.66;;;14.14;35.00
35694;BME280;21812;55.536;37.664;2023-05-07T10:25:14;100977.41;;;14.48;26.07
35694;BME280;21812;55.536;37.664;2023-05-07T10:27:43;100988.50;;;13.77;33.90
35694;BME280;21812;55.536;37.664;2023-05-07T10:33:19;100966.25;;;13.45;30.61
35694;BME280;21812;55.536;37.664;2023-05-07T10:35:48;100986.34;;;12.87;25.72
35694;BME280;21812;55.536;37.664;2023-05-07T10:38:15;100993.44;;;13.11;28.11
35694;BME280;21812;55.536;37.664;2023-05-07T10:40:43;101001.53;;;13.34;34.22
35694;BME280;21812;55.536;37.664;2023-05-07T10:43:09;100991.53;;;13.51;35.94
35694;BME280;21812;55.536;37.664;2023-05-07T10:46:16;100997.34;;;14.39;29.25
35694;BME280;21812;55.536;37.664;2023-05-07T10:52:24;100997.03;;;13.26;26.10
35694;BME280;21812;55.536;37.664;2023-05-07T10:57:47;100977.56;;;12.62;23.73
35694;BME280;21812;55.536;37.664;2023-05-07T11:00:41;100986.25;;;12.72;25.63
35694;BME280;21812;55.536;37.664;2023-05-07T11:03:11;100979.09;;;12.96;23.95
35694;BME280;21812;55.536;37.664;2023-05-07T11:06:11;100986.47;;;12.54;23.64
35694;BME280;21812;55.536;37.664;2023-05-07T11:08:58;100985.38;;;11.83;24.53
35694;BME280;21812;55.536;37.664;2023-05-07T11:11:50;100990.69;;;11.42;25.64
35694;BME280;21812;55.536;37.664;2023-05-07T11:14:43;100959.94;;;11.62;34.76
35694;BME280;21812;55.536;37.664;2023-05-07T11:17:17;100982.34;;;12.83;26.03
35694;BME280;21812;55.536;37.664;2023-05-07T11:19:53;100948.16;;;13.16;33.48
35694;BME280;21812;55.536;37.664;2023-05-07T11:25:27;100987.97;;;14.20;35.20
35694;BME280;21812;55.536;37.664;2023-05-07T11:28:09;100975.22;;;14.81;25.35
35694;BME280;21812;55.536;37.664;2023-05-07T11:30:42;100969.78;;;15.11;36.68
35694;BME280;21812;55.536;37.664;2023-05-07T11:33:10;100965.53;;;15.02;39.47
35694;BME280;21812;55.536;37.664;2023-05-07T11:35:36;100972.44;;;14.90;33.74
35694;BME280;21812;55.536;37.664;2023-05-07T11:38:03;100979.88;;;14.05;38.44
35694;BME280;21812;55.536;37.664;2023-05-07T11:40:32;100987.06;;;13.66;25.83
35694;BME280;21812;55.536;37.664;2023-05-07T11:42:58;100988.03;;;13.74;28.61
35694;BME280;21812;55.536;37.664;2023-05-07T11:45:25;100988.94;;;13.66;26.66
35694;BME280;21812;55.536;37.664;2023-05-07T11:47:51;100991.72;;;13.73;27.84
35694;BME280;21812;55.536;37.664;2023-05-07T11:50:16;100991.22;;;13.54;27.31
35694;BME280;21812;55.536;37.664;2023-05-07T11:52:50;100960.75;;;13.16;24.90
35694;BME280;21812;55.536;37.664;2023-05-07T11:55:18;100995.88;;;13.29;23.72
35694;BME280;21812;55.536;37.664;2023-05-07T11:57:44;100986.28;;;14.57;24.65
35694;BME280;21812;55.536;37.664;2023-05-07T12:00:10;100980.50;;;14.75;23.23
35694;BME280;21812;55.536;37.664;2023-05-07T12:02:39;100977.81;;;13.92;26.44
35694;BME280;21812;55.536;37.664;2023-05-07T12:05:06;100988.84;;;13.97;27.56
35694;BME280;21812;55.536;37.664;2023-05-07T12:07:33;100971.59;;;13.54;24.21
35694;BME280;21812;55.536;37.664;2023-05-07T12:10:07;101000.59;;;12.87;23.24
35694;BME280;21812;55.536;37.664;2023-05-07T12:12:40;100983.06;;;11.96;24.45
35694;BME280;21812;55.536;37.664;2023-05-07T12:15:08;100996.09;;;11.91;29.84
35694;BME280;21812;55.536;37.664;2023-05-07T12:17:34;100997.78;;;11.92;26.34
35694;BME280;21812;55.536;37.664;2023-05-07T12:20:00;100991.22;;;11.78;25.33
35694;BME280;21812;55.536;37.664;2023-05-07T12:22:26;100996.22;;;11.65;25.96
35694;BME280;21812;55.536;37.664;2023-05-07T12:24:58;100992.22;;;11.85;25.66
35694;BME280;21812;55.536;37.664;2023-05-07T12:27:25;100986.75;;;13.07;24.53
35694;BME280;21812;55.536;37.664;2023-05-07T12:29:51;100979.34;;;14.10;24.87
35694;BME280;21812;55.536;37.664;2023-05-07T12:32:19;100984.28;;;14.51;23.00
35694;BME280;21812;55.536;37.664;2023-05-07T12:34:45;100989.03;;;14.11;23.88
35694;BME280;21812;55.536;37.664;2023-05-07T12:37:12;100976.50;;;15.00;23.71
35694;BME280;21812;55.536;37.664;2023-05-07T12:39:44;100967.78;;;15.99;21.91
35694;BME280;21812;55.536;37.664;2023-05-07T12:42:15;100975.34;;;14.58;22.18
35694;BME280;21812;55.536;37.664;2023-05-07T12:44:41;100972.69;;;14.20;22.83
35694;BME280;21812;55.536;37.664;2023-05-07T12:47:10;100976.09;;;13.53;23.01
35694;BME280;21812;55.536;37.664;2023-05-07T12:49:36;100988.22;;;12.78;22.86
35694;BME280;21812;55.536;37.664;2023-05-07T12:52:05;100977.00;;;11.78;23.29
35694;BME280;21812;55.536;37.664;2023-05-07T12:54:34;100983.00;;;11.47;24.17
35694;BME280;21812;55.536;37.664;2023-05-07T12:57:08;100981.31;;;11.38;24.05
35694;BME280;21812;55.536;37.664;2023-05-07T12:59:41;100963.28;;;11.64;23.94
35694;BME280;21812;55.536;37.664;2023-05-07T13:02:08;100982.63;;;12.48;25.18
35694;BME280;21812;55.536;37.664;2023-05-07T13:04:36;100978.44;;;13.33;25.19
35694;BME280;21812;55.536;37.664;2023-05-07T13:07:02;100970.56;;;13.32;22.92